sensor_id;sensor_type;location;lat;lon;timestamp;temperature;humidity
20829;DHT22;10575;50.124;8.582;2023-08-21T00:00:02;24.90;99.90
20829;DHT22;10575;50.124;8.582;2023-08-21T00:02:29;24.90;99.90
20829;DHT22;10575;50.124;8.582;2023-08-21T00:04:55;24.90;99.90
20829;DHT22;10575;50.124;8.582;2023-08-21T00:07:20;24.90;99.90
20829;DHT22;10575;50.124;8.582;2023-08-21T00:09:46;24.80;99.90
20829;DHT22;10575;50.124;8.582;2023-08-21T00:12:11;24.80;99.90
20829;DHT22;10575;50.124;8.582;2023-08-21T00:14:37;24.80;99.90
20829;DHT22;10575;50.124;8.582;2023-08-21T00:17:03;24.80;99.90
20829;DHT22;10575;50.124;8.582;2023-08-21T00:19:29;24.80;99.90
20829;DHT22;10575;50.124;8.582;2023-08-21T00:21:55;24.70;99.90
20829;DHT22;10575;50.124;8.582;2023-08-21T00:24:20;24.70;99.90
20829;DHT22;10575;50.124;8.582;2023-08-21T00:26:46;24.60;99.90
20829;DHT22;10575;50.124;8.582;2023-08-21T00:29:12;24.60;99.90
20829;DHT22;10575;50.124;8.582;2023-08-21T00:31:37;24.60;99.90
20829;DHT22;10575;50.124;8.582;2023-08-21T00:34:03;24.60;99.90
20829;DHT22;10575;50.124;8.582;2023-08-21T00:36:28;24.70;99.90
20829;DHT22;10575;50.124;8.582;2023-08-21T00:38:54;24.60;99.90
20829;DHT22;10575;50.124;8.582;2023-08-21T00:41:19;24.60;99.90
20829;DHT22;10575;50.124;8.582;2023-08-21T00:43:44;24.60;99.90
20829;DHT22;10575;50.124;8.582;2023-08-21T00:46:10;24.60;99.90
20829;DHT22;10575;50.124;8.582;2023-08-21T00:48:36;24.60;99.90
20829;DHT22;10575;50.124;8.582;2023-08-21T00:51:03;24.60;99.90
20829;DHT22;10575;50.124;8.582;2023-08-21T00:53:28;24.80;99.90
20829;DHT22;10575;50.124;8.582;2023-08-21T00:55:55;24.80;99.90
20829;DHT22;10575;50.124;8.582;2023-08-21T00:58:20;24.80;99.90
20829;DHT22;10575;50.124;8.582;2023-08-21T01:00:46;24.80;99.90
20829;DHT22;10575;50.124;8.582;2023-08-21T01:03:14;24.80;99.90
20829;DHT22;10575;50.124;8.582;2023-08-21T01:05:40;24.80;99.90
20829;DHT22;10575;50.124;8.582;2023-08-21T01:10:48;24.80;99.90
20829;DHT22;10575;50.124;8.582;2023-08-21T01:15:50;24.70;99.90
20829;DHT22;10575;50.124;8.582;2023-08-21T01:18:16;24.70;99.90
20829;DHT22;10575;50.124;8.582;2023-08-21T01:20:43;24.60;99.90
20829;DHT22;10575;50.124;8.582;2023-08-21T01:23:08;24.70;99.90
20829;DHT22;10575;50.124;8.582;2023-08-21T01:25:34;24.60;99.90
20829;DHT22;10575;50.124;8.582;2023-08-21T01:27:59;24.60;99.90
20829;DHT22;10575;50.124;8.582;2023-08-21T01:30:26;24.50;99.90
20829;DHT22;10575;50.124;8.582;2023-08-21T01:33:06;24.50;99.90
20829;DHT22;10575;50.124;8.582;2023-08-21T01:35:35;24.60;99.90
20829;DHT22;10575;50.124;8.582;2023-08-21T01:38:05;24.50;99.90
20829;DHT22;10575;50.124;8.582;2023-08-21T01:40:30;24.50;99.90
20829;DHT22;10575;50.124;8.582;2023-08-21T01:42:56;24.60;99.90
20829;DHT22;10575;50.124;8.582;2023-08-21T01:45:22;24.60;99.90
20829;DHT22;10575;50.124;8.582;2023-08-21T01:47:47;24.60;99.90
20829;DHT22;10575;50.124;8.582;2023-08-21T01:50:13;24.60;99.90
20829;DHT22;10575;50.124;8.582;2023-08-21T01:52:39;24.60;99.90
20829;DHT22;10575;50.124;8.582;2023-08-21T01:55:05;24.60;99.90
20829;DHT22;10575;50.124;8.582;2023-08-21T01:57:33;24.60;99.90
20829;DHT22;10575;50.124;8.582;2023-08-21T01:59:59;24.70;99.90
20829;DHT22;10575;50.124;8.582;2023-08-21T02:02:24;24.70;99.90
20829;DHT22;10575;50.124;8.582;2023-08-21T02:04:50;24.70;99.90
20829;DHT22;10575;50.124;8.582;2023-08-21T02:07:15;24.60;99.90
20829;DHT22;10575;50.124;8.582;2023-08-21T02:09:41;24.60;99.90
20829;DHT22;10575;50.124;8.582;2023-08-21T02:12:06;24.50;99.90
20829;DHT22;10575;50.124;8.582;2023-08-21T02:14:32;24.50;99.90
20829;DHT22;10575;50.124;8.582;2023-08-21T02:16:57;24.60;99.90
20829;DHT22;10575;50.124;8.582;2023-08-21T02:19:23;24.50;99.90
20829;DHT22;10575;50.124;8.582;2023-08-21T02:21:51;24.50;99.90
20829;DHT22;10575;50.124;8.582;2023-08-21T02:24:16;24.50;99.90
20829;DHT22;10575;50.124;8.582;2023-08-21T02:26:42;24.50;99.90
20829;DHT22;10575;50.124;8.582;2023-08-21T02:29:10;24.40;99.90
20829;DHT22;10575;50.124;8.582;2023-08-21T02:31:37;24.30;99.90
20829;DHT22;10575;50.124;8.582;2023-08-21T02:34:02;24.30;99.90
20829;DHT22;10575;50.124;8.582;2023-08-21T02:36:28;24.30;99.90
20829;DHT22;10575;50.124;8.582;2023-08-21T02:38:54;24.30;99.90
20829;DHT22;10575;50.124;8.582;2023-08-21T02:41:20;24.40;99.90
20829;DHT22;10575;50.124;8.582;2023-08-21T02:43:45;24.40;99.90
20829;DHT22;10575;50.124;8.582;2023-08-21T02:46:11;24.40;99.90
20829;DHT22;10575;50.124;8.582;2023-08-21T02:48:36;24.30;99.90
20829;DHT22;10575;50.124;8.582;2023-08-21T02:51:02;24.30;99.90
20829;DHT22;10575;50.124;8.582;2023-08-21T02:53:28;24.20;99.90
20829;DHT22;10575;50.124;8.582;2023-08-21T02:55:54;24.30;99.90
20829;DHT22;10575;50.124;8.582;2023-08-21T02:58:19;24.30;99.90
20829;DHT22;10575;50.124;8.582;2023-08-21T03:00:44;24.30;99.90
20829;DHT22;10575;50.124;8.582;2023-08-21T03:03:10;24.30;99.90
20829;DHT22;10575;50.124;8.582;2023-08-21T03:05:36;24.30;99.90
20829;DHT22;10575;50.124;8.582;2023-08-21T03:08:02;24.20;99.90
20829;DHT22;10575;50.124;8.582;2023-08-21T03:10:28;24.00;99.90
20829;DHT22;10575;50.124;8.582;2023-08-21T03:12:58;23.80;99.90
20829;DHT22;10575;50.124;8.582;2023-08-21T03:15:24;23.70;99.90
20829;DHT22;10575;50.124;8.582;2023-08-21T03:17:49;23.70;99.90
20829;DHT22;10575;50.124;8.582;2023-08-21T03:20:15;23.70;99.90
20829;DHT22;10575;50.124;8.582;2023-08-21T03:22:41;23.90;99.90
20829;DHT22;10575;50.124;8.582;2023-08-21T03:25:07;23.90;99.90
20829;DHT22;10575;50.124;8.582;2023-08-21T03:27:32;23.80;99.90
20829;DHT22;10575;50.124;8.582;2023-08-21T03:29:58;23.80;99.90
20829;DHT22;10575;50.124;8.582;2023-08-21T03:32:26;23.70;99.90
20829;DHT22;10575;50.124;8.582;2023-08-21T03:34:51;23.80;99.90
20829;DHT22;10575;50.124;8.582;2023-08-21T03:37:17;23.90;99.90
20829;DHT22;10575;50.124;8.582;2023-08-21T03:39:43;24.00;99.90
20829;DHT22;10575;50.124;8.582;2023-08-21T03:42:08;24.00;99.90
20829;DHT22;10575;50.124;8.582;2023-08-21T03:44:34;24.00;99.90
20829;DHT22;10575;50.124;8.582;2023-08-21T03:46:59;24.00;99.90
20829;DHT22;10575;50.124;8.582;2023-08-21T03:49:25;24.00;99.90
20829;DHT22;10575;50.124;8.582;2023-08-21T03:51:50;24.00;99.90
20829;DHT22;10575;50.124;8.582;2023-08-21T03:54:16;24.00;99.90
20829;DHT22;10575;50.124;8.582;2023-08-21T03:56:41;23.90;99.90
20829;DHT22;10575;50.124;8.582;2023-08-21T03:59:07;23.70;99.90
20829;DHT22;10575;50.124;8.582;2023-08-21T04:01:32;23.50;99.90
20829;DHT22;10575;50.124;8.582;2023-08-21T04:03:58;23.50;99.90
20829;DHT22;10575;50.124;8.582;2023-08-21T04:06:23;23.40;99.90
20829;DHT22;10575;50.124;8.582;2023-08-21T04:08:49;23.40;99.90
20829;DHT22;10575;50.124;8.582;2023-08-21T04:11:15;23.40;99.90
20829;DHT22;10575;50.124;8.582;2023-08-21T04:13:41;23.30;99.90
20829;DHT22;10575;50.124;8.582;2023-08-21T04:16:06;23.20;99.90
20829;DHT22;10575;50.124;8.582;2023-08-21T04:18:33;23.20;99.90
20829;DHT22;10575;50.124;8.582;2023-08-21T04:20:59;23.20;99.90
20829;DHT22;10575;50.124;8.582;2023-08-21T04:23:24;23.20;99.90
20829;DHT22;10575;50.124;8.582;2023-08-21T04:25:50;23.20;99.90
20829;DHT22;10575;50.124;8.582;2023-08-21T04:28:15;23.10;99.90
20829;DHT22;10575;50.124;8.582;2023-08-21T04:30:41;23.00;99.90
20829;DHT22;10575;50.124;8.582;2023-08-21T04:33:07;23.00;99.90
20829;DHT22;10575;50.124;8.582;2023-08-21T04:35:39;23.00;99.90
20829;DHT22;10575;50.124;8.582;2023-08-21T04:38:05;22.90;99.90
20829;DHT22;10575;50.124;8.582;2023-08-21T04:40:30;22.70;99.90
20829;DHT22;10575;50.124;8.582;2023-08-21T04:42:56;22.80;99.90
20829;DHT22;10575;50.124;8.582;2023-08-21T04:45:21;22.90;99.90
20829;DHT22;10575;50.124;8.582;2023-08-21T04:47:47;23.00;99.90
20829;DHT22;10575;50.124;8.582;2023-08-21T04:50:12;23.10;99.90
20829;DHT22;10575;50.124;8.582;2023-08-21T04:52:38;22.90;99.90
20829;DHT22;10575;50.124;8.582;2023-08-21T04:55:04;22.90;99.90
20829;DHT22;10575;50.124;8.582;2023-08-21T04:57:29;23.00;99.90
20829;DHT22;10575;50.124;8.582;2023-08-21T04:59:55;23.10;99.90
20829;DHT22;10575;50.124;8.582;2023-08-21T05:02:20;23.10;99.90
20829;DHT22;10575;50.124;8.582;2023-08-21T05:04:46;23.30;99.90
20829;DHT22;10575;50.124;8.582;2023-08-21T05:07:11;23.30;99.90
20829;DHT22;10575;50.124;8.582;2023-08-21T05:09:37;23.40;99.90
20829;DHT22;10575;50.124;8.582;2023-08-21T05:12:03;23.50;99.90
20829;DHT22;10575;50.124;8.582;2023-08-21T05:14:29;23.50;99.90
20829;DHT22;10575;50.124;8.582;2023-08-21T05:16:54;23.50;99.90
20829;DHT22;10575;50.124;8.582;2023-08-21T05:19:20;23.50;99.90
20829;DHT22;10575;50.124;8.582;2023-08-21T05:21:45;23.50;99.90
20829;DHT22;10575;50.124;8.582;2023-08-21T05:24:11;23.70;99.90
20829;DHT22;10575;50.124;8.582;2023-08-21T05:26:38;23.80;99.90
20829;DHT22;10575;50.124;8.582;2023-08-21T05:29:03;24.00;99.90
20829;DHT22;10575;50.124;8.582;2023-08-21T05:31:29;24.10;99.90
20829;DHT22;10575;50.124;8.582;2023-08-21T05:33:55;24.00;99.90
20829;DHT22;10575;50.124;8.582;2023-08-21T05:36:20;24.00;99.90
20829;DHT22;10575;50.124;8.582;2023-08-21T05:38:46;24.10;99.90
20829;DHT22;10575;50.124;8.582;2023-08-21T05:41:13;24.20;99.90
20829;DHT22;10575;50.124;8.582;2023-08-21T05:43:42;24.30;99.90
20829;DHT22;10575;50.124;8.582;2023-08-21T05:46:10;24.40;99.90
20829;DHT22;10575;50.124;8.582;2023-08-21T05:48:37;24.60;99.90
20829;DHT22;10575;50.124;8.582;2023-08-21T05:51:02;25.00;99.90
20829;DHT22;10575;50.124;8.582;2023-08-21T05:53:28;25.20;99.90
20829;DHT22;10575;50.124;8.582;2023-08-21T05:55:54;25.50;99.90
20829;DHT22;10575;50.124;8.582;2023-08-21T05:58:19;25.60;99.90
20829;DHT22;10575;50.124;8.582;2023-08-21T06:00:46;25.80;99.90
20829;DHT22;10575;50.124;8.582;2023-08-21T06:03:12;26.00;99.90
20829;DHT22;10575;50.124;8.582;2023-08-21T06:05:37;26.10;99.90
20829;DHT22;10575;50.124;8.582;2023-08-21T06:08:03;26.30;99.90
20829;DHT22;10575;50.124;8.582;2023-08-21T06:10:30;26.80;99.90
20829;DHT22;10575;50.124;8.582;2023-08-21T06:12:56;27.20;99.90
20829;DHT22;10575;50.124;8.582;2023-08-21T06:15:21;28.00;99.90
20829;DHT22;10575;50.124;8.582;2023-08-21T06:17:47;29.70;99.90
20829;DHT22;10575;50.124;8.582;2023-08-21T06:20:12;31.90;99.90
20829;DHT22;10575;50.124;8.582;2023-08-21T06:22:39;33.80;99.90
20829;DHT22;10575;50.124;8.582;2023-08-21T06:25:05;34.70;99.90
20829;DHT22;10575;50.124;8.582;2023-08-21T06:48:13;35.30;99.90
20829;DHT22;10575;50.124;8.582;2023-08-21T06:50:38;36.40;99.90
20829;DHT22;10575;50.124;8.582;2023-08-21T06:53:04;37.80;98.50
20829;DHT22;10575;50.124;8.582;2023-08-21T06:55:30;38.60;96.80
20829;DHT22;10575;50.124;8.582;2023-08-21T06:57:55;38.80;95.60
20829;DHT22;10575;50.124;8.582;2023-08-21T07:00:21;38.40;94.40
20829;DHT22;10575;50.124;8.582;2023-08-21T07:02:47;37.50;94.10
20829;DHT22;10575;50.124;8.582;2023-08-21T07:05:13;36.50;95.70
20829;DHT22;10575;50.124;8.582;2023-08-21T07:07:39;35.20;96.80
20829;DHT22;10575;50.124;8.582;2023-08-21T07:10:05;34.90;97.30
20829;DHT22;10575;50.124;8.582;2023-08-21T07:12:30;34.30;98.70
20829;DHT22;10575;50.124;8.582;2023-08-21T07:14:56;34.20;99.30
20829;DHT22;10575;50.124;8.582;2023-08-21T07:17:21;34.40;99.10
20829;DHT22;10575;50.124;8.582;2023-08-21T07:19:47;35.00;98.70
20829;DHT22;10575;50.124;8.582;2023-08-21T07:22:14;35.90;97.40
20829;DHT22;10575;50.124;8.582;2023-08-21T07:24:40;36.90;95.60
20829;DHT22;10575;50.124;8.582;2023-08-21T07:27:05;36.80;95.40
20829;DHT22;10575;50.124;8.582;2023-08-21T07:29:31;37.10;94.80
20829;DHT22;10575;50.124;8.582;2023-08-21T07:31:57;37.90;93.30
20829;DHT22;10575;50.124;8.582;2023-08-21T07:34:22;37.50;94.00
20829;DHT22;10575;50.124;8.582;2023-08-21T07:39:23;38.60;91.20
20829;DHT22;10575;50.124;8.582;2023-08-21T07:41:49;40.60;87.90
20829;DHT22;10575;50.124;8.582;2023-08-21T07:44:14;41.40;83.30
20829;DHT22;10575;50.124;8.582;2023-08-21T07:49:15;47.10;59.20
20829;DHT22;10575;50.124;8.582;2023-08-21T08:02:02;54.20;36.60
20829;DHT22;10575;50.124;8.582;2023-08-21T08:04:29;55.20;35.30
20829;DHT22;10575;50.124;8.582;2023-08-21T08:06:55;56.20;31.90
20829;DHT22;10575;50.124;8.582;2023-08-21T08:09:48;57.10;30.50
20829;DHT22;10575;50.124;8.582;2023-08-21T08:18:11;58.50;27.20
20829;DHT22;10575;50.124;8.582;2023-08-21T08:20:36;58.30;27.70
20829;DHT22;10575;50.124;8.582;2023-08-21T08:28:13;59.40;26.20
20829;DHT22;10575;50.124;8.582;2023-08-21T08:30:38;58.90;26.40
20829;DHT22;10575;50.124;8.582;2023-08-21T08:33:04;59.00;26.10
20829;DHT22;10575;50.124;8.582;2023-08-21T08:35:30;58.40;25.60
20829;DHT22;10575;50.124;8.582;2023-08-21T08:37:55;58.30;26.60
20829;DHT22;10575;50.124;8.582;2023-08-21T09:13:56;57.50;25.90
20829;DHT22;10575;50.124;8.582;2023-08-21T09:18:54;55.10;27.30
20829;DHT22;10575;50.124;8.582;2023-08-21T09:29:07;60.20;23.40
20829;DHT22;10575;50.124;8.582;2023-08-21T09:41:55;47.90;32.90
20829;DHT22;10575;50.124;8.582;2023-08-21T10:00:23;38.40;48.00
20829;DHT22;10575;50.124;8.582;2023-08-21T10:02:52;37.90;49.60
20829;DHT22;10575;50.124;8.582;2023-08-21T10:05:19;37.20;51.80
20829;DHT22;10575;50.124;8.582;2023-08-21T10:07:49;36.80;53.40
20829;DHT22;10575;50.124;8.582;2023-08-21T10:10:16;36.70;51.90
20829;DHT22;10575;50.124;8.582;2023-08-21T10:15:10;36.20;54.60
20829;DHT22;10575;50.124;8.582;2023-08-21T10:17:37;36.20;54.20
20829;DHT22;10575;50.124;8.582;2023-08-21T10:56:19;35.10;57.90
20829;DHT22;10575;50.124;8.582;2023-08-21T12:00:32;33.80;58.20
20829;DHT22;10575;50.124;8.582;2023-08-21T13:12:53;32.70;66.60
20829;DHT22;10575;50.124;8.582;2023-08-21T13:17:56;32.70;67.30
20829;DHT22;10575;50.124;8.582;2023-08-21T13:20:22;32.90;66.60
20829;DHT22;10575;50.124;8.582;2023-08-21T13:22:50;33.00;65.20
20829;DHT22;10575;50.124;8.582;2023-08-21T13:25:18;33.00;66.50
20829;DHT22;10575;50.124;8.582;2023-08-21T13:30:20;33.20;67.30
20829;DHT22;10575;50.124;8.582;2023-08-21T13:32:47;33.20;65.10
20829;DHT22;10575;50.124;8.582;2023-08-21T13:35:12;33.00;67.80
20829;DHT22;10575;50.124;8.582;2023-08-21T13:37:39;33.00;69.10
20829;DHT22;10575;50.124;8.582;2023-08-21T13:40:07;33.00;67.50
20829;DHT22;10575;50.124;8.582;2023-08-21T13:45:12;33.00;69.70
20829;DHT22;10575;50.124;8.582;2023-08-21T13:47:40;33.00;69.30
20829;DHT22;10575;50.124;8.582;2023-08-21T13:50:06;32.80;70.20
20829;DHT22;10575;50.124;8.582;2023-08-21T14:49:28;33.30;66.30
20829;DHT22;10575;50.124;8.582;2023-08-21T14:51:54;33.20;69.70
20829;DHT22;10575;50.124;8.582;2023-08-21T14:54:20;33.00;70.40
20829;DHT22;10575;50.124;8.582;2023-08-21T14:56:45;32.80;69.40
20829;DHT22;10575;50.124;8.582;2023-08-21T14:59:12;32.70;70.90
20829;DHT22;10575;50.124;8.582;2023-08-21T15:01:38;32.60;72.50
20829;DHT22;10575;50.124;8.582;2023-08-21T15:04:04;32.50;71.10
20829;DHT22;10575;50.124;8.582;2023-08-21T15:06:30;32.50;71.80
20829;DHT22;10575;50.124;8.582;2023-08-21T15:08:55;32.50;72.30
20829;DHT22;10575;50.124;8.582;2023-08-21T15:11:24;32.60;71.70
20829;DHT22;10575;50.124;8.582;2023-08-21T15:13:49;32.60;72.20
20829;DHT22;10575;50.124;8.582;2023-08-21T15:16:15;32.70;70.70
20829;DHT22;10575;50.124;8.582;2023-08-21T15:18:41;32.50;69.40
20829;DHT22;10575;50.124;8.582;2023-08-21T15:21:07;32.40;71.30
20829;DHT22;10575;50.124;8.582;2023-08-21T15:23:32;32.30;71.60
20829;DHT22;10575;50.124;8.582;2023-08-21T15:25:58;32.40;71.20
20829;DHT22;10575;50.124;8.582;2023-08-21T15:28:23;32.50;72.70
20829;DHT22;10575;50.124;8.582;2023-08-21T15:30:49;32.70;67.40
20829;DHT22;10575;50.124;8.582;2023-08-21T15:33:14;32.80;65.10
20829;DHT22;10575;50.124;8.582;2023-08-21T15:35:40;32.90;65.80
20829;DHT22;10575;50.124;8.582;2023-08-21T15:38:05;33.00;66.50
20829;DHT22;10575;50.124;8.582;2023-08-21T15:40:31;33.00;68.40
20829;DHT22;10575;50.124;8.582;2023-08-21T15:43:00;33.00;70.10
20829;DHT22;10575;50.124;8.582;2023-08-21T15:45:26;33.00;66.30
20829;DHT22;10575;50.124;8.582;2023-08-21T15:47:52;33.00;66.00
20829;DHT22;10575;50.124;8.582;2023-08-21T15:50:17;33.10;67.20
20829;DHT22;10575;50.124;8.582;2023-08-21T15:52:46;33.10;67.80
20829;DHT22;10575;50.124;8.582;2023-08-21T15:55:12;33.20;64.60
20829;DHT22;10575;50.124;8.582;2023-08-21T15:57:38;33.20;66.20
20829;DHT22;10575;50.124;8.582;2023-08-21T16:00:03;33.20;65.10
20829;DHT22;10575;50.124;8.582;2023-08-21T16:02:32;33.10;67.80
20829;DHT22;10575;50.124;8.582;2023-08-21T16:04:57;33.10;70.30
20829;DHT22;10575;50.124;8.582;2023-08-21T16:07:23;32.90;70.40
20829;DHT22;10575;50.124;8.582;2023-08-21T16:09:48;32.90;67.70
20829;DHT22;10575;50.124;8.582;2023-08-21T16:12:14;32.90;67.60
20829;DHT22;10575;50.124;8.582;2023-08-21T16:14:42;32.90;67.50
20829;DHT22;10575;50.124;8.582;2023-08-21T16:17:08;32.90;68.00
20829;DHT22;10575;50.124;8.582;2023-08-21T16:19:33;32.90;68.00
20829;DHT22;10575;50.124;8.582;2023-08-21T16:21:59;32.70;69.80
20829;DHT22;10575;50.124;8.582;2023-08-21T16:24:29;32.70;70.30
20829;DHT22;10575;50.124;8.582;2023-08-21T16:26:55;32.70;69.40
20829;DHT22;10575;50.124;8.582;2023-08-21T16:29:21;32.70;68.30
20829;DHT22;10575;50.124;8.582;2023-08-21T16:31:49;32.90;68.90
20829;DHT22;10575;50.124;8.582;2023-08-21T16:34:15;32.90;66.00
20829;DHT22;10575;50.124;8.582;2023-08-21T16:36:41;33.00;65.40
20829;DHT22;10575;50.124;8.582;2023-08-21T16:39:07;33.00;67.00
20829;DHT22;10575;50.124;8.582;2023-08-21T16:41:33;33.10;69.20
20829;DHT22;10575;50.124;8.582;2023-08-21T16:43:59;33.10;69.60
20829;DHT22;10575;50.124;8.582;2023-08-21T16:46:24;33.00;69.70
20829;DHT22;10575;50.124;8.582;2023-08-21T16:48:51;32.90;70.00
20829;DHT22;10575;50.124;8.582;2023-08-21T16:51:16;32.90;72.80
20829;DHT22;10575;50.124;8.582;2023-08-21T16:53:42;32.70;73.90
20829;DHT22;10575;50.124;8.582;2023-08-21T16:56:07;32.60;73.30
20829;DHT22;10575;50.124;8.582;2023-08-21T16:58:33;32.50;71.30
20829;DHT22;10575;50.124;8.582;2023-08-21T17:00:58;32.50;74.20
20829;DHT22;10575;50.124;8.582;2023-08-21T17:03:24;32.50;75.20
20829;DHT22;10575;50.124;8.582;2023-08-21T17:05:49;32.50;75.60
20829;DHT22;10575;50.124;8.582;2023-08-21T17:08:15;32.40;76.20
20829;DHT22;10575;50.124;8.582;2023-08-21T17:10:42;32.30;77.90
20829;DHT22;10575;50.124;8.582;2023-08-21T17:13:08;32.20;81.00
20829;DHT22;10575;50.124;8.582;2023-08-21T17:15:33;32.10;81.60
20829;DHT22;10575;50.124;8.582;2023-08-21T17:17:59;32.00;81.80
20829;DHT22;10575;50.124;8.582;2023-08-21T17:20:24;31.80;80.80
20829;DHT22;10575;50.124;8.582;2023-08-21T17:22:54;31.80;80.80
20829;DHT22;10575;50.124;8.582;2023-08-21T17:25:20;31.70;79.60
20829;DHT22;10575;50.124;8.582;2023-08-21T17:27:46;31.60;78.90
20829;DHT22;10575;50.124;8.582;2023-08-21T17:30:13;31.70;79.40
20829;DHT22;10575;50.124;8.582;2023-08-21T17:32:39;31.80;79.80
20829;DHT22;10575;50.124;8.582;2023-08-21T17:35:04;31.80;78.70
20829;DHT22;10575;50.124;8.582;2023-08-21T17:37:30;31.80;79.00
20829;DHT22;10575;50.124;8.582;2023-08-21T17:39:55;31.80;79.10
20829;DHT22;10575;50.124;8.582;2023-08-21T17:42:22;31.80;79.30
20829;DHT22;10575;50.124;8.582;2023-08-21T17:44:48;31.80;79.70
20829;DHT22;10575;50.124;8.582;2023-08-21T17:47:13;31.80;80.20
20829;DHT22;10575;50.124;8.582;2023-08-21T17:49:38;31.70;81.10
20829;DHT22;10575;50.124;8.582;2023-08-21T17:52:04;31.60;80.80
20829;DHT22;10575;50.124;8.582;2023-08-21T17:54:30;31.40;80.90
20829;DHT22;10575;50.124;8.582;2023-08-21T17:56:55;31.20;81.70
20829;DHT22;10575;50.124;8.582;2023-08-21T17:59:21;31.00;81.20
20829;DHT22;10575;50.124;8.582;2023-08-21T18:01:46;30.80;81.90
20829;DHT22;10575;50.124;8.582;2023-08-21T18:04:12;30.60;83.20
20829;DHT22;10575;50.124;8.582;2023-08-21T18:06:37;30.60;84.80
20829;DHT22;10575;50.124;8.582;2023-08-21T18:09:03;30.50;86.30
20829;DHT22;10575;50.124;8.582;2023-08-21T18:11:29;30.30;86.20
20829;DHT22;10575;50.124;8.582;2023-08-21T18:13:55;30.20;87.20
20829;DHT22;10575;50.124;8.582;2023-08-21T18:16:20;30.00;88.40
20829;DHT22;10575;50.124;8.582;2023-08-21T18:18:46;30.00;89.40
20829;DHT22;10575;50.124;8.582;2023-08-21T18:21:12;29.90;90.20
20829;DHT22;10575;50.124;8.582;2023-08-21T18:23:38;29.90;90.00
20829;DHT22;10575;50.124;8.582;2023-08-21T18:26:04;29.70;90.00
20829;DHT22;10575;50.124;8.582;2023-08-21T18:28:30;29.60;90.70
20829;DHT22;10575;50.124;8.582;2023-08-21T18:30:57;29.70;91.00
20829;DHT22;10575;50.124;8.582;2023-08-21T18:33:23;29.50;91.60
20829;DHT22;10575;50.124;8.582;2023-08-21T18:35:50;29.50;91.90
20829;DHT22;10575;50.124;8.582;2023-08-21T18:38:16;29.30;92.00
20829;DHT22;10575;50.124;8.582;2023-08-21T18:40:42;29.20;92.30
20829;DHT22;10575;50.124;8.582;2023-08-21T18:43:08;29.10;92.80
20829;DHT22;10575;50.124;8.582;2023-08-21T18:45:35;29.10;93.20
20829;DHT22;10575;50.124;8.582;2023-08-21T18:48:01;29.00;93.50
20829;DHT22;10575;50.124;8.582;2023-08-21T18:50:43;29.00;93.80
20829;DHT22;10575;50.124;8.582;2023-08-21T18:53:10;28.90;93.80
20829;DHT22;10575;50.124;8.582;2023-08-21T18:55:38;28.80;94.10
20829;DHT22;10575;50.124;8.582;2023-08-21T18:58:04;28.80;94.70
20829;DHT22;10575;50.124;8.582;2023-08-21T19:00:30;28.80;95.00
20829;DHT22;10575;50.124;8.582;2023-08-21T19:02:58;28.80;95.30
20829;DHT22;10575;50.124;8.582;2023-08-21T19:05:24;28.90;95.70
20829;DHT22;10575;50.124;8.582;2023-08-21T19:07:49;28.90;96.20
20829;DHT22;10575;50.124;8.582;2023-08-21T19:10:16;28.80;96.50
20829;DHT22;10575;50.124;8.582;2023-08-21T19:12:42;28.70;97.30
20829;DHT22;10575;50.124;8.582;2023-08-21T19:15:08;28.60;97.30
20829;DHT22;10575;50.124;8.582;2023-08-21T19:17:36;28.50;97.90
20829;DHT22;10575;50.124;8.582;2023-08-21T19:20:03;28.40;98.30
20829;DHT22;10575;50.124;8.582;2023-08-21T19:22:30;28.50;99.40
20829;DHT22;10575;50.124;8.582;2023-08-21T19:24:55;28.50;99.50
20829;DHT22;10575;50.124;8.582;2023-08-21T19:27:21;28.50;99.30
20829;DHT22;10575;50.124;8.582;2023-08-21T19:29:46;28.40;99.20
20829;DHT22;10575;50.124;8.582;2023-08-21T19:32:12;28.30;99.00
20829;DHT22;10575;50.124;8.582;2023-08-21T19:34:38;28.30;99.80
20829;DHT22;10575;50.124;8.582;2023-08-21T19:37:04;28.40;99.70
20829;DHT22;10575;50.124;8.582;2023-08-21T19:39:30;28.40;99.80
20829;DHT22;10575;50.124;8.582;2023-08-21T19:41:56;28.30;99.90
20829;DHT22;10575;50.124;8.582;2023-08-21T19:44:22;28.20;99.90
20829;DHT22;10575;50.124;8.582;2023-08-21T19:46:47;28.10;99.90
20829;DHT22;10575;50.124;8.582;2023-08-21T19:49:13;28.10;99.90
20829;DHT22;10575;50.124;8.582;2023-08-21T19:51:41;28.10;99.90
20829;DHT22;10575;50.124;8.582;2023-08-21T19:54:07;28.10;99.90
20829;DHT22;10575;50.124;8.582;2023-08-21T19:56:32;28.10;99.90
20829;DHT22;10575;50.124;8.582;2023-08-21T19:58:58;28.20;99.90
20829;DHT22;10575;50.124;8.582;2023-08-21T20:03:59;28.20;99.90
20829;DHT22;10575;50.124;8.582;2023-08-21T20:06:25;28.10;99.90
20829;DHT22;10575;50.124;8.582;2023-08-21T20:08:51;28.00;99.90
20829;DHT22;10575;50.124;8.582;2023-08-21T20:11:16;28.00;99.90
20829;DHT22;10575;50.124;8.582;2023-08-21T20:13:43;28.00;99.90
20829;DHT22;10575;50.124;8.582;2023-08-21T20:16:09;27.90;99.90
20829;DHT22;10575;50.124;8.582;2023-08-21T20:18:36;27.80;99.90
20829;DHT22;10575;50.124;8.582;2023-08-21T20:21:02;27.70;99.90
20829;DHT22;10575;50.124;8.582;2023-08-21T20:23:31;27.60;99.90
20829;DHT22;10575;50.124;8.582;2023-08-21T20:25:57;27.60;99.90
20829;DHT22;10575;50.124;8.582;2023-08-21T20:28:23;27.50;99.90
20829;DHT22;10575;50.124;8.582;2023-08-21T20:30:50;27.50;99.90
20829;DHT22;10575;50.124;8.582;2023-08-21T20:33:16;27.60;99.90
20829;DHT22;10575;50.124;8.582;2023-08-21T20:35:42;27.70;99.90
20829;DHT22;10575;50.124;8.582;2023-08-21T20:38:08;27.80;99.90
20829;DHT22;10575;50.124;8.582;2023-08-21T20:40:34;27.70;99.90
20829;DHT22;10575;50.124;8.582;2023-08-21T20:42:59;27.60;99.90
20829;DHT22;10575;50.124;8.582;2023-08-21T20:45:25;27.70;99.90
20829;DHT22;10575;50.124;8.582;2023-08-21T20:47:52;27.70;99.90
20829;DHT22;10575;50.124;8.582;2023-08-21T20:50:17;27.80;99.90
20829;DHT22;10575;50.124;8.582;2023-08-21T20:52:43;27.80;99.90
20829;DHT22;10575;50.124;8.582;2023-08-21T20:55:09;27.90;99.90
20829;DHT22;10575;50.124;8.582;2023-08-21T20:57:35;27.90;99.90
20829;DHT22;10575;50.124;8.582;2023-08-21T21:00:00;27.80;99.90
20829;DHT22;10575;50.124;8.582;2023-08-21T21:05:11;27.60;99.90
20829;DHT22;10575;50.124;8.582;2023-08-21T21:07:37;27.50;99.90
20829;DHT22;10575;50.124;8.582;2023-08-21T21:10:03;27.50;99.90
20829;DHT22;10575;50.124;8.582;2023-08-21T21:12:32;27.60;99.90
20829;DHT22;10575;50.124;8.582;2023-08-21T21:14:59;27.60;99.90
20829;DHT22;10575;50.124;8.582;2023-08-21T21:17:24;27.60;99.90
20829;DHT22;10575;50.124;8.582;2023-08-21T21:19:50;27.60;99.90
20829;DHT22;10575;50.124;8.582;2023-08-21T21:22:15;27.40;99.90
20829;DHT22;10575;50.124;8.582;2023-08-21T21:24:41;27.30;99.90